sensor_id;sensor_type;location;lat;lon;timestamp;temperature;humidity
666;DHT22;315;48.738;9.126;2022-11-11T00:00:33;7.10;99.90
666;DHT22;315;48.738;9.126;2022-11-11T00:02:58;7.10;99.90
666;DHT22;315;48.738;9.126;2022-11-11T00:05:25;7.20;99.90
666;DHT22;315;48.738;9.126;2022-11-11T00:07:54;7.20;99.90
666;DHT22;315;48.738;9.126;2022-11-11T00:10:24;7.20;99.90
666;DHT22;315;48.738;9.126;2022-11-11T00:12:50;7.10;99.90
666;DHT22;315;48.738;9.126;2022-11-11T00:15:15;7.10;99.90
666;DHT22;315;48.738;9.126;2022-11-11T00:17:41;7.10;99.90
666;DHT22;315;48.738;9.126;2022-11-11T00:20:25;7.00;99.90
666;DHT22;315;48.738;9.126;2022-11-11T00:23:20;7.00;99.90
666;DHT22;315;48.738;9.126;2022-11-11T00:26:04;7.00;99.90
666;DHT22;315;48.738;9.126;2022-11-11T00:28:29;7.00;99.90
666;DHT22;315;48.738;9.126;2022-11-11T00:31:06;7.00;99.90
666;DHT22;315;48.738;9.126;2022-11-11T00:33:32;7.00;99.90
666;DHT22;315;48.738;9.126;2022-11-11T00:35:57;7.00;99.90
666;DHT22;315;48.738;9.126;2022-11-11T00:38:23;6.90;99.90
666;DHT22;315;48.738;9.126;2022-11-11T00:41:08;6.90;99.90
666;DHT22;315;48.738;9.126;2022-11-11T00:43:34;6.90;99.90
666;DHT22;315;48.738;9.126;2022-11-11T00:45:59;6.90;99.90
666;DHT22;315;48.738;9.126;2022-11-11T00:48:43;6.80;99.90
666;DHT22;315;48.738;9.126;2022-11-11T00:51:28;6.70;99.90
666;DHT22;315;48.738;9.126;2022-11-11T00:53:53;6.70;99.90
666;DHT22;315;48.738;9.126;2022-11-11T00:56:20;6.60;99.90
666;DHT22;315;48.738;9.126;2022-11-11T00:58:46;6.50;99.90
666;DHT22;315;48.738;9.126;2022-11-11T01:01:12;6.50;99.90
666;DHT22;315;48.738;9.126;2022-11-11T01:03:37;6.60;99.90
666;DHT22;315;48.738;9.126;2022-11-11T01:06:03;6.60;99.90
666;DHT22;315;48.738;9.126;2022-11-11T01:08:30;6.60;99.90
666;DHT22;315;48.738;9.126;2022-11-11T01:10:56;6.60;99.90
666;DHT22;315;48.738;9.126;2022-11-11T01:13:23;6.60;99.90
666;DHT22;315;48.738;9.126;2022-11-11T01:15:52;6.50;99.90
666;DHT22;315;48.738;9.126;2022-11-11T01:18:23;6.50;99.90
666;DHT22;315;48.738;9.126;2022-11-11T01:21:00;6.60;99.90
666;DHT22;315;48.738;9.126;2022-11-11T01:23:27;6.50;99.90
666;DHT22;315;48.738;9.126;2022-11-11T01:25:53;6.50;99.90
666;DHT22;315;48.738;9.126;2022-11-11T01:28:18;6.50;99.90
666;DHT22;315;48.738;9.126;2022-11-11T01:30:44;6.60;99.90
666;DHT22;315;48.738;9.126;2022-11-11T01:33:10;6.60;99.90
666;DHT22;315;48.738;9.126;2022-11-11T01:35:40;6.60;99.90
666;DHT22;315;48.738;9.126;2022-11-11T01:38:07;6.60;99.90
666;DHT22;315;48.738;9.126;2022-11-11T01:40:53;6.50;99.90
666;DHT22;315;48.738;9.126;2022-11-11T01:43:21;6.60;99.90
666;DHT22;315;48.738;9.126;2022-11-11T01:45:59;6.60;99.90
666;DHT22;315;48.738;9.126;2022-11-11T01:48:38;6.60;99.90
666;DHT22;315;48.738;9.126;2022-11-11T01:51:37;6.60;99.90
666;DHT22;315;48.738;9.126;2022-11-11T01:54:09;6.60;99.90
666;DHT22;315;48.738;9.126;2022-11-11T01:56:37;6.50;99.90
666;DHT22;315;48.738;9.126;2022-11-11T01:59:10;6.60;99.90
666;DHT22;315;48.738;9.126;2022-11-11T02:01:37;6.50;99.90
666;DHT22;315;48.738;9.126;2022-11-11T02:04:05;6.50;99.90
666;DHT22;315;48.738;9.126;2022-11-11T02:06:52;6.50;99.90
666;DHT22;315;48.738;9.126;2022-11-11T02:09:20;6.50;99.90
666;DHT22;315;48.738;9.126;2022-11-11T02:11:47;6.40;99.90
666;DHT22;315;48.738;9.126;2022-11-11T02:14:38;6.40;99.90
666;DHT22;315;48.738;9.126;2022-11-11T02:17:09;6.30;99.90
666;DHT22;315;48.738;9.126;2022-11-11T02:19:50;6.20;99.90
666;DHT22;315;48.738;9.126;2022-11-11T02:22:25;6.20;99.90
666;DHT22;315;48.738;9.126;2022-11-11T02:24:53;6.10;99.90
666;DHT22;315;48.738;9.126;2022-11-11T02:27:21;6.20;99.90
666;DHT22;315;48.738;9.126;2022-11-11T02:29:49;6.10;99.90
666;DHT22;315;48.738;9.126;2022-11-11T02:32:15;6.10;99.90
666;DHT22;315;48.738;9.126;2022-11-11T02:34:40;6.10;99.90
666;DHT22;315;48.738;9.126;2022-11-11T02:37:07;6.10;99.90
666;DHT22;315;48.738;9.126;2022-11-11T02:39:34;6.10;99.90
666;DHT22;315;48.738;9.126;2022-11-11T02:42:02;6.10;99.90
666;DHT22;315;48.738;9.126;2022-11-11T02:44:35;6.10;99.90
666;DHT22;315;48.738;9.126;2022-11-11T02:47:00;6.10;99.90
666;DHT22;315;48.738;9.126;2022-11-11T02:49:26;6.10;99.90
666;DHT22;315;48.738;9.126;2022-11-11T02:51:51;6.10;99.90
666;DHT22;315;48.738;9.126;2022-11-11T02:54:17;6.00;99.90
666;DHT22;315;48.738;9.126;2022-11-11T02:56:42;6.00;99.90
666;DHT22;315;48.738;9.126;2022-11-11T02:59:26;6.00;99.90
666;DHT22;315;48.738;9.126;2022-11-11T03:01:52;6.00;99.90
666;DHT22;315;48.738;9.126;2022-11-11T03:04:17;6.00;99.90
666;DHT22;315;48.738;9.126;2022-11-11T03:06:43;6.00;99.90
666;DHT22;315;48.738;9.126;2022-11-11T03:09:08;5.90;99.90
666;DHT22;315;48.738;9.126;2022-11-11T03:11:34;6.00;99.90
666;DHT22;315;48.738;9.126;2022-11-11T03:14:03;5.90;99.90
666;DHT22;315;48.738;9.126;2022-11-11T03:16:28;5.90;99.90
666;DHT22;315;48.738;9.126;2022-11-11T03:19:13;5.90;99.90
666;DHT22;315;48.738;9.126;2022-11-11T03:21:38;5.90;99.90
666;DHT22;315;48.738;9.126;2022-11-11T03:24:04;5.90;99.90
666;DHT22;315;48.738;9.126;2022-11-11T03:26:29;5.90;99.90
666;DHT22;315;48.738;9.126;2022-11-11T03:28:55;5.90;99.90
666;DHT22;315;48.738;9.126;2022-11-11T03:31:21;5.90;99.90
666;DHT22;315;48.738;9.126;2022-11-11T03:33:46;5.90;99.90
666;DHT22;315;48.738;9.126;2022-11-11T03:36:12;5.90;99.90
666;DHT22;315;48.738;9.126;2022-11-11T03:38:38;6.00;99.90
666;DHT22;315;48.738;9.126;2022-11-11T03:41:03;6.00;99.90
666;DHT22;315;48.738;9.126;2022-11-11T03:43:31;6.00;99.90
666;DHT22;315;48.738;9.126;2022-11-11T03:45:59;6.00;99.90
666;DHT22;315;48.738;9.126;2022-11-11T03:48:27;6.00;99.90
666;DHT22;315;48.738;9.126;2022-11-11T03:50:52;6.00;99.90
666;DHT22;315;48.738;9.126;2022-11-11T03:53:19;6.00;99.90
666;DHT22;315;48.738;9.126;2022-11-11T03:55:45;6.00;99.90
666;DHT22;315;48.738;9.126;2022-11-11T03:58:11;6.00;99.90
666;DHT22;315;48.738;9.126;2022-11-11T04:00:37;6.00;99.90
666;DHT22;315;48.738;9.126;2022-11-11T04:05:47;6.00;99.90
666;DHT22;315;48.738;9.126;2022-11-11T04:08:31;6.00;99.90
666;DHT22;315;48.738;9.126;2022-11-11T04:11:38;6.00;99.90
666;DHT22;315;48.738;9.126;2022-11-11T04:14:10;5.90;99.90
666;DHT22;315;48.738;9.126;2022-11-11T04:16:54;5.90;99.90
666;DHT22;315;48.738;9.126;2022-11-11T04:19:20;5.90;99.90
666;DHT22;315;48.738;9.126;2022-11-11T04:22:04;5.90;99.90
666;DHT22;315;48.738;9.126;2022-11-11T04:24:30;5.90;99.90
666;DHT22;315;48.738;9.126;2022-11-11T04:27:17;5.80;99.90
666;DHT22;315;48.738;9.126;2022-11-11T04:29:43;5.80;99.90
666;DHT22;315;48.738;9.126;2022-11-11T04:32:16;5.80;99.90
666;DHT22;315;48.738;9.126;2022-11-11T04:35:09;5.70;99.90
666;DHT22;315;48.738;9.126;2022-11-11T04:37:44;5.70;99.90
666;DHT22;315;48.738;9.126;2022-11-11T04:40:10;5.70;99.90
666;DHT22;315;48.738;9.126;2022-11-11T04:42:55;5.70;99.90
666;DHT22;315;48.738;9.126;2022-11-11T04:45:20;5.70;99.90
666;DHT22;315;48.738;9.126;2022-11-11T04:48:02;5.60;99.90
666;DHT22;315;48.738;9.126;2022-11-11T04:50:34;5.60;99.90
666;DHT22;315;48.738;9.126;2022-11-11T04:53:00;5.60;99.90
666;DHT22;315;48.738;9.126;2022-11-11T04:55:27;5.60;99.90
666;DHT22;315;48.738;9.126;2022-11-11T04:58:11;5.60;99.90
666;DHT22;315;48.738;9.126;2022-11-11T05:00:37;5.50;99.90
666;DHT22;315;48.738;9.126;2022-11-11T05:03:03;5.50;99.90
666;DHT22;315;48.738;9.126;2022-11-11T05:05:46;5.50;99.90
666;DHT22;315;48.738;9.126;2022-11-11T05:08:31;5.60;99.90
666;DHT22;315;48.738;9.126;2022-11-11T05:11:16;5.50;99.90
666;DHT22;315;48.738;9.126;2022-11-11T05:13:41;5.40;99.90
666;DHT22;315;48.738;9.126;2022-11-11T05:16:28;5.40;99.90
666;DHT22;315;48.738;9.126;2022-11-11T05:19:14;5.40;99.90
666;DHT22;315;48.738;9.126;2022-11-11T05:22:08;5.40;99.90
666;DHT22;315;48.738;9.126;2022-11-11T05:24:35;5.40;99.90
666;DHT22;315;48.738;9.126;2022-11-11T05:27:19;5.40;99.90
666;DHT22;315;48.738;9.126;2022-11-11T05:29:46;5.30;99.90
666;DHT22;315;48.738;9.126;2022-11-11T05:32:18;5.30;99.90
666;DHT22;315;48.738;9.126;2022-11-11T05:34:44;5.30;99.90
666;DHT22;315;48.738;9.126;2022-11-11T05:37:10;5.30;99.90
666;DHT22;315;48.738;9.126;2022-11-11T05:39:35;5.30;99.90
666;DHT22;315;48.738;9.126;2022-11-11T05:42:01;5.20;99.90
666;DHT22;315;48.738;9.126;2022-11-11T05:44:27;5.20;99.90
666;DHT22;315;48.738;9.126;2022-11-11T05:46:52;5.20;99.90
666;DHT22;315;48.738;9.126;2022-11-11T05:49:18;5.20;99.90
666;DHT22;315;48.738;9.126;2022-11-11T05:51:44;5.20;99.90
666;DHT22;315;48.738;9.126;2022-11-11T05:54:10;5.20;99.90
666;DHT22;315;48.738;9.126;2022-11-11T05:56:36;5.20;99.90
666;DHT22;315;48.738;9.126;2022-11-11T05:59:01;5.30;99.90
666;DHT22;315;48.738;9.126;2022-11-11T06:01:27;5.30;99.90
666;DHT22;315;48.738;9.126;2022-11-11T06:03:52;5.30;99.90
666;DHT22;315;48.738;9.126;2022-11-11T06:06:18;5.30;99.90
666;DHT22;315;48.738;9.126;2022-11-11T06:08:43;5.40;99.90
666;DHT22;315;48.738;9.126;2022-11-11T06:11:09;5.40;99.90
666;DHT22;315;48.738;9.126;2022-11-11T06:13:35;5.40;99.90
666;DHT22;315;48.738;9.126;2022-11-11T06:16:01;5.40;99.90
666;DHT22;315;48.738;9.126;2022-11-11T06:18:27;5.40;99.90
666;DHT22;315;48.738;9.126;2022-11-11T06:20:53;5.40;99.90
666;DHT22;315;48.738;9.126;2022-11-11T06:23:19;5.40;99.90
666;DHT22;315;48.738;9.126;2022-11-11T06:25:45;5.40;99.90
666;DHT22;315;48.738;9.126;2022-11-11T06:28:29;5.30;99.90
666;DHT22;315;48.738;9.126;2022-11-11T06:30:54;5.30;99.90
666;DHT22;315;48.738;9.126;2022-11-11T06:33:20;5.30;99.90
666;DHT22;315;48.738;9.126;2022-11-11T06:35:46;5.40;99.90
666;DHT22;315;48.738;9.126;2022-11-11T06:38:12;5.40;99.90
666;DHT22;315;48.738;9.126;2022-11-11T06:40:38;5.40;99.90
666;DHT22;315;48.738;9.126;2022-11-11T06:43:03;5.40;99.90
666;DHT22;315;48.738;9.126;2022-11-11T06:45:30;5.40;99.90
666;DHT22;315;48.738;9.126;2022-11-11T06:47:56;5.50;99.90
666;DHT22;315;48.738;9.126;2022-11-11T06:50:21;5.50;99.90
666;DHT22;315;48.738;9.126;2022-11-11T06:52:47;5.50;99.90
666;DHT22;315;48.738;9.126;2022-11-11T06:55:13;5.60;99.90
666;DHT22;315;48.738;9.126;2022-11-11T06:57:39;5.60;99.90
666;DHT22;315;48.738;9.126;2022-11-11T07:00:05;5.70;99.90
666;DHT22;315;48.738;9.126;2022-11-11T07:02:31;5.80;99.90
666;DHT22;315;48.738;9.126;2022-11-11T07:04:56;5.90;99.90
666;DHT22;315;48.738;9.126;2022-11-11T07:07:22;6.00;99.90
666;DHT22;315;48.738;9.126;2022-11-11T07:09:48;6.00;99.90
666;DHT22;315;48.738;9.126;2022-11-11T07:12:13;6.10;99.90
666;DHT22;315;48.738;9.126;2022-11-11T07:14:39;6.20;99.90
666;DHT22;315;48.738;9.126;2022-11-11T07:17:04;6.20;99.90
666;DHT22;315;48.738;9.126;2022-11-11T07:19:30;6.30;99.90
666;DHT22;315;48.738;9.126;2022-11-11T07:21:56;6.40;99.90
666;DHT22;315;48.738;9.126;2022-11-11T07:24:21;6.50;99.90
666;DHT22;315;48.738;9.126;2022-11-11T07:26:47;6.60;99.90
666;DHT22;315;48.738;9.126;2022-11-11T07:29:12;6.50;99.90
666;DHT22;315;48.738;9.126;2022-11-11T07:31:40;6.50;99.90
666;DHT22;315;48.738;9.126;2022-11-11T07:34:06;6.50;99.90
666;DHT22;315;48.738;9.126;2022-11-11T07:36:32;6.60;99.90
666;DHT22;315;48.738;9.126;2022-11-11T07:38:57;6.70;99.90
666;DHT22;315;48.738;9.126;2022-11-11T07:41:23;6.70;99.90
666;DHT22;315;48.738;9.126;2022-11-11T07:43:49;6.80;99.90
666;DHT22;315;48.738;9.126;2022-11-11T07:46:14;7.10;99.90
666;DHT22;315;48.738;9.126;2022-11-11T07:48:40;7.10;99.90
666;DHT22;315;48.738;9.126;2022-11-11T07:51:05;7.10;99.90
666;DHT22;315;48.738;9.126;2022-11-11T07:53:31;7.10;99.90
666;DHT22;315;48.738;9.126;2022-11-11T07:55:56;7.40;99.90
666;DHT22;315;48.738;9.126;2022-11-11T07:58:22;7.50;99.90
666;DHT22;315;48.738;9.126;2022-11-11T08:00:48;7.50;99.90
666;DHT22;315;48.738;9.126;2022-11-11T08:03:13;7.60;99.90
666;DHT22;315;48.738;9.126;2022-11-11T08:05:39;7.90;99.90
666;DHT22;315;48.738;9.126;2022-11-11T08:08:06;8.20;99.90
666;DHT22;315;48.738;9.126;2022-11-11T08:10:32;8.50;99.90
666;DHT22;315;48.738;9.126;2022-11-11T08:12:58;8.60;99.90
666;DHT22;315;48.738;9.126;2022-11-11T08:15:43;9.10;99.90
666;DHT22;315;48.738;9.126;2022-11-11T08:18:08;9.10;99.90
666;DHT22;315;48.738;9.126;2022-11-11T08:20:34;9.10;99.90
666;DHT22;315;48.738;9.126;2022-11-11T08:23:00;9.20;99.90
666;DHT22;315;48.738;9.126;2022-11-11T08:25:29;9.20;99.90
666;DHT22;315;48.738;9.126;2022-11-11T08:27:58;9.20;99.90
666;DHT22;315;48.738;9.126;2022-11-11T08:30:24;9.50;99.90
666;DHT22;315;48.738;9.126;2022-11-11T08:33:01;9.80;99.90
666;DHT22;315;48.738;9.126;2022-11-11T08:35:27;9.80;99.90
666;DHT22;315;48.738;9.126;2022-11-11T08:37:53;10.10;99.90
666;DHT22;315;48.738;9.126;2022-11-11T08:40:19;10.40;99.90
666;DHT22;315;48.738;9.126;2022-11-11T08:42:45;10.30;99.90
666;DHT22;315;48.738;9.126;2022-11-11T08:45:11;10.50;99.90
666;DHT22;315;48.738;9.126;2022-11-11T08:47:37;10.50;99.90
666;DHT22;315;48.738;9.126;2022-11-11T08:50:05;10.60;99.90
666;DHT22;315;48.738;9.126;2022-11-11T08:52:30;11.20;99.90
666;DHT22;315;48.738;9.126;2022-11-11T08:54:56;11.60;99.90
666;DHT22;315;48.738;9.126;2022-11-11T08:57:22;12.50;99.90
666;DHT22;315;48.738;9.126;2022-11-11T08:59:47;13.00;99.90
666;DHT22;315;48.738;9.126;2022-11-11T09:02:13;13.10;99.90
666;DHT22;315;48.738;9.126;2022-11-11T09:04:39;13.80;99.90
666;DHT22;315;48.738;9.126;2022-11-11T09:07:09;14.50;99.90
666;DHT22;315;48.738;9.126;2022-11-11T09:09:35;15.30;99.90
666;DHT22;315;48.738;9.126;2022-11-11T09:12:01;16.10;99.90
666;DHT22;315;48.738;9.126;2022-11-11T09:14:26;17.10;99.90
666;DHT22;315;48.738;9.126;2022-11-11T09:16:52;18.20;99.90
666;DHT22;315;48.738;9.126;2022-11-11T09:19:18;19.40;99.90
666;DHT22;315;48.738;9.126;2022-11-11T09:21:43;20.00;99.90
666;DHT22;315;48.738;9.126;2022-11-11T09:24:09;21.10;98.30
666;DHT22;315;48.738;9.126;2022-11-11T09:26:34;21.80;95.30
666;DHT22;315;48.738;9.126;2022-11-11T09:29:00;22.60;93.40
666;DHT22;315;48.738;9.126;2022-11-11T09:31:25;22.90;90.90
666;DHT22;315;48.738;9.126;2022-11-11T09:33:51;23.30;90.00
666;DHT22;315;48.738;9.126;2022-11-11T09:36:17;23.00;88.80
666;DHT22;315;48.738;9.126;2022-11-11T09:38:43;23.00;88.90
666;DHT22;315;48.738;9.126;2022-11-11T09:41:19;22.50;90.60
666;DHT22;315;48.738;9.126;2022-11-11T09:43:53;22.50;90.10
666;DHT22;315;48.738;9.126;2022-11-11T09:51:59;24.10;84.60
666;DHT22;315;48.738;9.126;2022-11-11T09:54:34;24.70;80.00
666;DHT22;315;48.738;9.126;2022-11-11T09:57:07;25.50;76.30
666;DHT22;315;48.738;9.126;2022-11-11T09:59:50;25.00;75.10
666;DHT22;315;48.738;9.126;2022-11-11T10:02:38;24.10;76.00
666;DHT22;315;48.738;9.126;2022-11-11T10:05:11;24.70;77.00
666;DHT22;315;48.738;9.126;2022-11-11T10:07:42;24.10;75.90
666;DHT22;315;48.738;9.126;2022-11-11T10:12:59;23.80;78.70
666;DHT22;315;48.738;9.126;2022-11-11T10:15:31;23.90;78.30
666;DHT22;315;48.738;9.126;2022-11-11T10:18:14;23.80;79.10
666;DHT22;315;48.738;9.126;2022-11-11T10:20:47;24.20;78.10
666;DHT22;315;48.738;9.126;2022-11-11T10:23:15;24.70;76.80
666;DHT22;315;48.738;9.126;2022-11-11T10:25:51;24.80;76.20
666;DHT22;315;48.738;9.126;2022-11-11T10:28:20;24.50;75.70
666;DHT22;315;48.738;9.126;2022-11-11T10:30:47;24.10;78.80
666;DHT22;315;48.738;9.126;2022-11-11T10:33:27;24.20;77.40
666;DHT22;315;48.738;9.126;2022-11-11T10:35:55;24.20;77.10
666;DHT22;315;48.738;9.126;2022-11-11T10:38:54;24.50;76.60
666;DHT22;315;48.738;9.126;2022-11-11T10:41:39;24.90;74.50
666;DHT22;315;48.738;9.126;2022-11-11T10:44:21;24.60;74.70
666;DHT22;315;48.738;9.126;2022-11-11T10:47:13;25.40;74.30
666;DHT22;315;48.738;9.126;2022-11-11T10:49:49;26.80;67.50
666;DHT22;315;48.738;9.126;2022-11-11T10:52:47;27.40;64.60
666;DHT22;315;48.738;9.126;2022-11-11T10:55:25;28.60;61.80
666;DHT22;315;48.738;9.126;2022-11-11T10:57:56;29.30;58.80
666;DHT22;315;48.738;9.126;2022-11-11T11:00:24;29.80;56.40
666;DHT22;315;48.738;9.126;2022-11-11T11:07:47;26.60;58.60
666;DHT22;315;48.738;9.126;2022-11-11T11:10:17;26.00;60.10
666;DHT22;315;48.738;9.126;2022-11-11T11:12:50;25.90;60.30
666;DHT22;315;48.738;9.126;2022-11-11T11:15:19;26.00;60.40
666;DHT22;315;48.738;9.126;2022-11-11T11:20:31;26.70;59.20
666;DHT22;315;48.738;9.126;2022-11-11T11:22:57;27.50;62.20
666;DHT22;315;48.738;9.126;2022-11-11T11:25:25;27.90;62.20
666;DHT22;315;48.738;9.126;2022-11-11T11:28:10;28.60;61.30
666;DHT22;315;48.738;9.126;2022-11-11T11:30:36;28.20;61.00
666;DHT22;315;48.738;9.126;2022-11-11T11:33:04;28.00;60.10
666;DHT22;315;48.738;9.126;2022-11-11T11:35:37;26.50;62.30
666;DHT22;315;48.738;9.126;2022-11-11T11:38:08;26.10;64.10
666;DHT22;315;48.738;9.126;2022-11-11T11:40:51;25.60;66.30
666;DHT22;315;48.738;9.126;2022-11-11T11:43:33;25.60;66.10
666;DHT22;315;48.738;9.126;2022-11-11T11:46:01;25.20;67.40
666;DHT22;315;48.738;9.126;2022-11-11T11:48:49;25.90;66.80
666;DHT22;315;48.738;9.126;2022-11-11T11:54:02;24.10;71.50
666;DHT22;315;48.738;9.126;2022-11-11T11:56:39;24.90;69.50
666;DHT22;315;48.738;9.126;2022-11-11T12:02:02;26.30;65.00
666;DHT22;315;48.738;9.126;2022-11-11T12:10:35;27.80;62.40
666;DHT22;315;48.738;9.126;2022-11-11T12:13:11;28.90;59.50
666;DHT22;315;48.738;9.126;2022-11-11T12:23:55;31.10;57.10
666;DHT22;315;48.738;9.126;2022-11-11T12:26:32;30.80;56.30
666;DHT22;315;48.738;9.126;2022-11-11T12:43:00;31.20;55.50
666;DHT22;315;48.738;9.126;2022-11-11T12:49:02;28.70;58.40
666;DHT22;315;48.738;9.126;2022-11-11T12:54:25;27.40;59.70
666;DHT22;315;48.738;9.126;2022-11-11T13:08:36;28.60;59.30
666;DHT22;315;48.738;9.126;2022-11-11T13:11:28;28.40;60.30
666;DHT22;315;48.738;9.126;2022-11-11T13:16:49;28.70;59.20
666;DHT22;315;48.738;9.126;2022-11-11T13:19:28;27.70;60.10
666;DHT22;315;48.738;9.126;2022-11-11T13:22:09;26.50;61.50
666;DHT22;315;48.738;9.126;2022-11-11T13:24:37;25.00;63.30
666;DHT22;315;48.738;9.126;2022-11-11T13:27:06;23.30;67.10
666;DHT22;315;48.738;9.126;2022-11-11T13:32:15;22.40;73.60
666;DHT22;315;48.738;9.126;2022-11-11T13:34:43;22.50;74.50
666;DHT22;315;48.738;9.126;2022-11-11T13:37:23;22.50;75.90
666;DHT22;315;48.738;9.126;2022-11-11T13:39:50;22.40;76.20
666;DHT22;315;48.738;9.126;2022-11-11T13:42:22;22.30;76.80
666;DHT22;315;48.738;9.126;2022-11-11T13:44:52;22.00;79.00
666;DHT22;315;48.738;9.126;2022-11-11T13:47:38;21.70;82.30
666;DHT22;315;48.738;9.126;2022-11-11T13:50:14;21.00;85.00
666;DHT22;315;48.738;9.126;2022-11-11T13:53:01;20.20;91.30
666;DHT22;315;48.738;9.126;2022-11-11T13:55:35;19.70;93.50
666;DHT22;315;48.738;9.126;2022-11-11T13:58:02;19.50;94.10
666;DHT22;315;48.738;9.126;2022-11-11T14:00:33;19.30;95.40
666;DHT22;315;48.738;9.126;2022-11-11T14:05:45;18.40;96.90
666;DHT22;315;48.738;9.126;2022-11-11T14:13:58;17.80;99.90
666;DHT22;315;48.738;9.126;2022-11-11T14:24:53;17.40;99.90
666;DHT22;315;48.738;9.126;2022-11-11T14:27:24;17.20;99.90
666;DHT22;315;48.738;9.126;2022-11-11T14:29:53;16.80;99.90
666;DHT22;315;48.738;9.126;2022-11-11T14:35:35;16.60;99.90
666;DHT22;315;48.738;9.126;2022-11-11T14:38:20;16.40;99.90
666;DHT22;315;48.738;9.126;2022-11-11T14:40:46;16.10;99.90
666;DHT22;315;48.738;9.126;2022-11-11T14:46:09;15.70;99.90
666;DHT22;315;48.738;9.126;2022-11-11T14:48:51;15.60;99.90
666;DHT22;315;48.738;9.126;2022-11-11T14:51:44;15.60;99.90
666;DHT22;315;48.738;9.126;2022-11-11T14:57:03;15.40;99.90
666;DHT22;315;48.738;9.126;2022-11-11T14:59:30;15.30;99.90
666;DHT22;315;48.738;9.126;2022-11-11T15:01:58;15.30;99.90
666;DHT22;315;48.738;9.126;2022-11-11T15:04:25;15.20;99.90
666;DHT22;315;48.738;9.126;2022-11-11T15:07:01;15.00;99.90
666;DHT22;315;48.738;9.126;2022-11-11T15:09:42;14.90;99.90
666;DHT22;315;48.738;9.126;2022-11-11T15:17:49;14.30;99.90
666;DHT22;315;48.738;9.126;2022-11-11T15:20:52;14.10;99.90
666;DHT22;315;48.738;9.126;2022-11-11T15:23:23;13.80;99.90
666;DHT22;315;48.738;9.126;2022-11-11T15:26:11;13.60;99.90
666;DHT22;315;48.738;9.126;2022-11-11T15:31:49;13.40;99.90
666;DHT22;315;48.738;9.126;2022-11-11T15:37:05;13.30;99.90
666;DHT22;315;48.738;9.126;2022-11-11T15:39:42;13.00;99.90
666;DHT22;315;48.738;9.126;2022-11-11T15:44:51;12.80;99.90
666;DHT22;315;48.738;9.126;2022-11-11T15:47:18;12.70;99.90
666;DHT22;315;48.738;9.126;2022-11-11T15:49:48;12.70;99.90
666;DHT22;315;48.738;9.126;2022-11-11T15:52:33;12.50;99.90
666;DHT22;315;48.738;9.126;2022-11-11T15:55:00;12.40;99.90
666;DHT22;315;48.738;9.126;2022-11-11T15:57:31;12.40;99.90
666;DHT22;315;48.738;9.126;2022-11-11T15:59:59;12.20;99.90
666;DHT22;315;48.738;9.126;2022-11-11T16:02:29;12.10;99.90
666;DHT22;315;48.738;9.126;2022-11-11T16:05:13;12.00;99.90
666;DHT22;315;48.738;9.126;2022-11-11T16:07:43;11.90;99.90
666;DHT22;315;48.738;9.126;2022-11-11T16:10:15;11.70;99.90
666;DHT22;315;48.738;9.126;2022-11-11T16:13:41;11.60;99.90
666;DHT22;315;48.738;9.126;2022-11-11T16:18:17;11.60;99.90
666;DHT22;315;48.738;9.126;2022-11-11T16:23:34;11.50;99.90
666;DHT22;315;48.738;9.126;2022-11-11T16:26:02;11.50;99.90
666;DHT22;315;48.738;9.126;2022-11-11T16:28:37;11.50;99.90
666;DHT22;315;48.738;9.126;2022-11-11T16:37:06;11.20;99.90
666;DHT22;315;48.738;9.126;2022-11-11T16:39:33;11.20;99.90
666;DHT22;315;48.738;9.126;2022-11-11T16:42:23;11.00;99.90
666;DHT22;315;48.738;9.126;2022-11-11T16:44:56;10.80;99.90
666;DHT22;315;48.738;9.126;2022-11-11T16:55:30;10.60;99.90
666;DHT22;315;48.738;9.126;2022-11-11T16:58:14;10.50;99.90
666;DHT22;315;48.738;9.126;2022-11-11T17:00:41;10.50;99.90
666;DHT22;315;48.738;9.126;2022-11-11T17:03:16;10.40;99.90
666;DHT22;315;48.738;9.126;2022-11-11T17:05:51;10.50;99.90
666;DHT22;315;48.738;9.126;2022-11-11T17:08:43;10.50;99.90
666;DHT22;315;48.738;9.126;2022-11-11T17:11:40;10.50;99.90
666;DHT22;315;48.738;9.126;2022-11-11T17:13:56;10.50;99.90
666;DHT22;315;48.738;9.126;2022-11-11T17:16:22;10.40;99.90
666;DHT22;315;48.738;9.126;2022-11-11T17:18:47;10.40;99.90
666;DHT22;315;48.738;9.126;2022-11-11T17:21:13;10.40;99.90
666;DHT22;315;48.738;9.126;2022-11-11T17:23:39;10.30;99.90
666;DHT22;315;48.738;9.126;2022-11-11T17:26:04;10.20;99.90
666;DHT22;315;48.738;9.126;2022-11-11T17:28:32;10.20;99.90
666;DHT22;315;48.738;9.126;2022-11-11T17:31:02;10.10;99.90
666;DHT22;315;48.738;9.126;2022-11-11T17:33:28;10.10;99.90
666;DHT22;315;48.738;9.126;2022-11-11T17:35:53;10.00;99.90
666;DHT22;315;48.738;9.126;2022-11-11T17:38:22;9.80;99.90
666;DHT22;315;48.738;9.126;2022-11-11T17:40:48;9.80;99.90
666;DHT22;315;48.738;9.126;2022-11-11T17:43:14;9.80;99.90
666;DHT22;315;48.738;9.126;2022-11-11T17:45:41;9.80;99.90
666;DHT22;315;48.738;9.126;2022-11-11T17:48:07;9.80;99.90
666;DHT22;315;48.738;9.126;2022-11-11T17:50:35;9.70;99.90
666;DHT22;315;48.738;9.126;2022-11-11T17:53:01;9.70;99.90
666;DHT22;315;48.738;9.126;2022-11-11T17:55:27;9.70;99.90
666;DHT22;315;48.738;9.126;2022-11-11T17:57:53;9.70;99.90
666;DHT22;315;48.738;9.126;2022-11-11T18:00:18;9.60;99.90
666;DHT22;315;48.738;9.126;2022-11-11T18:02:44;9.50;99.90
666;DHT22;315;48.738;9.126;2022-11-11T18:05:09;9.50;99.90
666;DHT22;315;48.738;9.126;2022-11-11T18:07:35;9.40;99.90
666;DHT22;315;48.738;9.126;2022-11-11T18:10:01;9.40;99.90
666;DHT22;315;48.738;9.126;2022-11-11T18:12:27;9.30;99.90
666;DHT22;315;48.738;9.126;2022-11-11T18:14:53;9.30;99.90
666;DHT22;315;48.738;9.126;2022-11-11T18:17:19;9.30;99.90
666;DHT22;315;48.738;9.126;2022-11-11T18:19:44;9.30;99.90
666;DHT22;315;48.738;9.126;2022-11-11T18:22:10;9.30;99.90
666;DHT22;315;48.738;9.126;2022-11-11T18:24:35;9.20;99.90
666;DHT22;315;48.738;9.126;2022-11-11T18:27:01;9.10;99.90
666;DHT22;315;48.738;9.126;2022-11-11T18:29:27;9.10;99.90
666;DHT22;315;48.738;9.126;2022-11-11T18:31:53;9.00;99.90
666;DHT22;315;48.738;9.126;2022-11-11T18:34:18;9.00;99.90
666;DHT22;315;48.738;9.126;2022-11-11T18:36:44;9.00;99.90
666;DHT22;315;48.738;9.126;2022-11-11T18:39:09;9.00;99.90
666;DHT22;315;48.738;9.126;2022-11-11T18:41:35;9.00;99.90
666;DHT22;315;48.738;9.126;2022-11-11T18:44:00;9.00;99.90
666;DHT22;315;48.738;9.126;2022-11-11T18:46:27;9.00;99.90
666;DHT22;315;48.738;9.126;2022-11-11T18:48:55;9.00;99.90
666;DHT22;315;48.738;9.126;2022-11-11T18:51:21;8.90;99.90
666;DHT22;315;48.738;9.126;2022-11-11T18:53:48;8.90;99.90
666;DHT22;315;48.738;9.126;2022-11-11T18:56:16;8.90;99.90
666;DHT22;315;48.738;9.126;2022-11-11T18:58:47;8.90;99.90
666;DHT22;315;48.738;9.126;2022-11-11T19:01:15;8.80;99.90
666;DHT22;315;48.738;9.126;2022-11-11T19:03:47;8.80;99.90
666;DHT22;315;48.738;9.126;2022-11-11T19:06:13;8.80;99.90
666;DHT22;315;48.738;9.126;2022-11-11T19:08:39;8.70;99.90
666;DHT22;315;48.738;9.126;2022-11-11T19:11:06;8.80;99.90
666;DHT22;315;48.738;9.126;2022-11-11T19:13:33;8.80;99.90
666;DHT22;315;48.738;9.126;2022-11-11T19:16:12;8.80;99.90
666;DHT22;315;48.738;9.126;2022-11-11T19:18:38;8.90;99.90
666;DHT22;315;48.738;9.126;2022-11-11T19:21:09;9.00;99.90